createdAt,value
2023-05-01T00:02:44.343Z,1.60
2023-05-01T00:07:47.957Z,1.80
2023-05-01T00:12:52.792Z,1.65
2023-05-01T00:17:56.617Z,1.60
2023-05-01T00:23:00.120Z,1.67
2023-05-01T00:28:06.393Z,2.00
2023-05-01T00:33:10.386Z,1.80
2023-05-01T00:38:14.090Z,1.60
2023-05-01T00:43:19.190Z,1.40
2023-05-01T00:48:22.853Z,1.50
2023-05-01T00:53:28.437Z,1.58
2023-05-01T00:58:33.526Z,1.40
2023-05-01T01:03:37.342Z,1.60
2023-05-01T01:08:42.898Z,1.70
2023-05-01T01:13:54.808Z,1.60
2023-05-01T01:19:03.927Z,1.52
2023-05-01T01:24:25.339Z,1.58
2023-05-01T01:29:46.472Z,1.40
2023-05-01T01:34:52.586Z,1.40
2023-05-01T01:40:01.359Z,1.63
2023-05-01T01:45:10.846Z,1.30
2023-05-01T01:50:16.234Z,1.70
2023-05-01T01:55:23.499Z,1.50
2023-05-01T02:00:27.233Z,1.60
2023-05-01T02:05:33.674Z,1.88
2023-05-01T02:10:38.233Z,1.40
2023-05-01T02:15:42.337Z,1.67
2023-05-01T02:20:47.577Z,1.60
2023-05-01T02:25:52.619Z,1.70
2023-05-01T02:30:57.457Z,1.70
2023-05-01T02:36:02.520Z,2.40
2023-05-01T02:41:07.854Z,2.10
2023-05-01T02:46:14.424Z,2.35
2023-05-01T02:51:20.094Z,1.90
2023-05-01T02:56:23.675Z,2.03
2023-05-01T03:01:28.625Z,2.00
2023-05-01T03:06:33.622Z,1.98
2023-05-01T03:11:37.166Z,2.10
2023-05-01T03:16:40.850Z,1.92
2023-05-01T03:21:45.842Z,2.03
2023-05-01T03:26:49.550Z,1.75
2023-05-01T03:31:53.063Z,1.80
2023-05-01T03:36:58.254Z,1.90
2023-05-01T03:42:03.814Z,2.30
2023-05-01T03:47:12.788Z,2.03
2023-05-01T03:52:19.948Z,1.92
2023-05-01T03:57:23.861Z,1.80
2023-05-01T04:02:27.928Z,1.92
2023-05-01T04:07:33.118Z,1.83
2023-05-01T04:12:36.772Z,1.88
2023-05-01T04:17:40.446Z,2.00
2023-05-01T04:22:45.527Z,2.38
2023-05-01T04:27:49.172Z,1.85
2023-05-01T04:32:52.765Z,1.85
2023-05-01T04:37:57.623Z,2.30
2023-05-01T04:43:01.237Z,2.00
2023-05-01T04:48:05.211Z,1.67
2023-05-01T04:53:10.094Z,1.92
2023-05-01T04:58:14.129Z,1.80
2023-05-01T05:03:19.782Z,1.85
2023-05-01T05:08:25.207Z,1.95
2023-05-01T05:13:33.417Z,1.95
2023-05-01T05:18:40.384Z,1.60
2023-05-01T05:23:46.156Z,2.00
2023-05-01T05:28:49.763Z,1.80
2023-05-01T05:33:53.873Z,2.33
2023-05-01T05:38:59.693Z,1.65
2023-05-01T05:44:03.316Z,1.67
2023-05-01T05:49:07.317Z,2.28
2023-05-01T05:54:12.703Z,1.90
2023-05-01T05:59:17.534Z,1.95
2023-05-01T06:04:21.759Z,2.20
2023-05-01T06:09:27.872Z,2.33
2023-05-01T06:14:31.405Z,1.65
2023-05-01T06:19:35.058Z,1.80
2023-05-01T06:24:48.297Z,1.83
2023-05-01T06:29:52.229Z,1.85
2023-05-01T06:34:56.124Z,2.10
2023-05-01T06:40:01.725Z,1.77
2023-05-01T06:45:05.471Z,2.00
2023-05-01T06:50:09.726Z,1.85
2023-05-01T06:55:14.637Z,1.85
2023-05-01T07:00:19.164Z,2.03
2023-05-01T07:05:22.632Z,2.20
2023-05-01T07:10:27.563Z,2.22
2023-05-01T07:15:31.095Z,2.20
2023-05-01T07:20:34.909Z,1.75
2023-05-01T07:25:41.382Z,1.92
2023-05-01T07:30:44.969Z,2.42
2023-05-01T07:35:48.457Z,1.77
2023-05-01T07:40:57.026Z,2.00
2023-05-01T07:46:01.643Z,1.88
2023-05-01T07:51:05.570Z,2.28
2023-05-01T07:56:10.806Z,2.72
2023-05-01T08:01:14.449Z,2.10
2023-05-01T08:06:17.991Z,2.83
2023-05-01T08:11:22.986Z,2.13
2023-05-01T08:16:26.855Z,2.67
2023-05-01T08:21:31.322Z,2.25
2023-05-01T08:26:36.223Z,2.10
2023-05-01T08:31:39.802Z,2.17
2023-05-01T08:36:43.410Z,2.45
2023-05-01T08:41:48.994Z,2.08
2023-05-01T08:46:55.848Z,2.60
2023-05-01T08:52:00.321Z,2.15
2023-05-01T08:57:06.048Z,2.45
2023-05-01T09:02:10.463Z,2.40
2023-05-01T09:07:14.365Z,2.20
2023-05-01T09:12:24.572Z,2.15
2023-05-01T09:17:29.146Z,2.40
2023-05-01T09:22:33.338Z,1.55
2023-05-01T09:27:38.829Z,1.80
2023-05-01T09:32:42.938Z,2.00
2023-05-01T09:37:51.346Z,2.25
2023-05-01T09:42:57.427Z,2.00
2023-05-01T09:48:11.821Z,1.83
2023-05-01T09:53:15.808Z,1.52
2023-05-01T09:58:30.048Z,1.52
2023-05-01T10:03:33.664Z,1.65
2023-05-01T10:08:47.534Z,1.55
2023-05-01T10:14:06.584Z,2.00
2023-05-01T10:19:11.938Z,1.40
2023-05-01T10:24:17.080Z,1.83
2023-05-01T10:29:23.264Z,1.73
2023-05-01T10:34:28.931Z,1.58
2023-05-01T10:39:33.080Z,1.70
2023-05-01T10:44:36.781Z,1.70
2023-05-01T10:49:58.919Z,2.10
2023-05-01T10:55:17.316Z,1.98
2023-05-01T11:00:22.985Z,1.90
2023-05-01T11:05:59.281Z,1.73
2023-05-01T11:11:17.758Z,1.77
2023-05-01T11:21:56.490Z,1.65
2023-05-01T11:27:01.267Z,1.50
2023-05-01T11:32:04.896Z,1.30
2023-05-01T11:37:09.939Z,1.40
2023-05-01T11:42:13.661Z,1.52
2023-05-01T11:47:17.419Z,1.42
2023-05-01T11:52:22.280Z,1.30
2023-05-01T11:57:26.386Z,1.60
2023-05-01T12:02:30.054Z,2.78
2023-05-01T12:07:37.584Z,1.40
2023-05-01T12:12:41.215Z,1.30
2023-05-01T12:17:46.891Z,1.20
2023-05-01T12:22:52.394Z,1.33
2023-05-01T12:27:55.922Z,1.27
2023-05-01T12:33:00.244Z,0.98
2023-05-01T12:38:11.622Z,1.20
2023-05-01T12:43:15.322Z,1.05
2023-05-01T12:48:19.165Z,1.40
2023-05-01T12:53:24.390Z,1.40
2023-05-01T12:58:36.948Z,1.50
2023-05-01T13:03:45.128Z,1.33
2023-05-01T13:08:50.179Z,1.30
2023-05-01T13:13:53.839Z,1.25
2023-05-01T13:18:57.462Z,1.05
2023-05-01T13:24:03.448Z,1.17
2023-05-01T13:29:07.329Z,1.33
2023-05-01T13:34:11.248Z,1.30
2023-05-01T13:39:21.400Z,1.20
2023-05-01T13:44:25.023Z,1.08
2023-05-01T13:49:28.703Z,1.20
2023-05-01T13:54:33.705Z,1.02
2023-05-01T13:59:40.268Z,1.40
2023-05-01T14:04:44.298Z,1.17
2023-05-01T14:09:54.560Z,1.13
2023-05-01T14:14:58.450Z,1.10
2023-05-01T14:20:02.349Z,1.33
2023-05-01T14:25:09.146Z,1.27
2023-05-01T14:30:22.810Z,1.27
2023-05-01T14:35:26.781Z,1.27
2023-05-01T14:40:31.751Z,1.40
2023-05-01T14:45:37.904Z,1.23
2023-05-01T14:50:41.799Z,1.20
2023-05-01T14:55:47.121Z,1.38
2023-05-01T15:00:50.740Z,1.13
2023-05-01T15:05:55.271Z,1.33
2023-05-01T15:11:00.171Z,1.52
2023-05-01T15:16:03.772Z,1.05
2023-05-01T15:21:07.538Z,1.10
2023-05-01T15:26:12.418Z,1.50
2023-05-01T15:31:15.980Z,1.20
2023-05-01T15:36:19.522Z,1.23
2023-05-01T15:41:24.593Z,1.00
2023-05-01T15:46:28.817Z,1.13
2023-05-01T15:51:32.944Z,0.95
2023-05-01T15:56:38.234Z,1.38
2023-05-01T16:01:42.590Z,1.30
2023-05-01T16:06:46.255Z,1.27
2023-05-01T16:11:51.737Z,1.33
2023-05-01T16:16:55.363Z,1.30
2023-05-01T16:21:58.880Z,1.23
2023-05-01T16:27:03.796Z,1.10
2023-05-01T16:32:07.559Z,1.17
2023-05-01T16:37:11.406Z,1.10
2023-05-01T16:42:16.435Z,1.63
2023-05-01T16:47:20.059Z,1.30
2023-05-01T16:52:23.602Z,1.17
2023-05-01T16:57:28.611Z,1.10
2023-05-01T17:02:32.647Z,1.38
2023-05-01T17:07:36.294Z,1.30
2023-05-01T17:12:41.700Z,1.52
2023-05-01T17:17:45.386Z,1.30
2023-05-01T17:22:49.384Z,1.38
2023-05-01T17:27:54.995Z,0.95
2023-05-01T17:32:59.132Z,1.20
2023-05-01T17:38:03.079Z,1.15
2023-05-01T17:43:08.756Z,1.30
2023-05-01T17:48:13.103Z,1.30
2023-05-01T17:53:16.670Z,1.20
2023-05-01T17:58:22.187Z,1.30
2023-05-01T18:03:25.923Z,1.20
2023-05-01T18:08:29.831Z,1.35
2023-05-01T18:13:38.312Z,1.75
2023-05-01T18:18:42.850Z,1.10
2023-05-01T18:23:48.893Z,1.33
2023-05-01T18:28:54.253Z,1.20
2023-05-01T18:33:58.350Z,1.38
2023-05-01T18:39:03.254Z,1.40
2023-05-01T18:44:10.772Z,1.15
2023-05-01T18:49:15.489Z,1.40
2023-05-01T18:54:19.302Z,1.42
2023-05-01T18:59:30.115Z,1.40
2023-05-01T19:04:49.394Z,1.20
2023-05-01T19:10:01.397Z,1.17
2023-05-01T19:15:09.358Z,1.20
2023-05-01T19:20:14.637Z,1.20
2023-05-01T19:25:19.652Z,1.17
2023-05-01T19:30:27.269Z,1.30
2023-05-01T19:35:34.036Z,1.40
2023-05-01T19:40:43.104Z,1.40
2023-05-01T19:45:49.352Z,1.10
2023-05-01T19:50:53.371Z,1.25
2023-05-01T19:55:57.038Z,1.40
2023-05-01T20:01:04.394Z,2.08
2023-05-01T20:06:08.515Z,2.45
2023-05-01T20:11:13.743Z,2.92
2023-05-01T20:16:22.535Z,2.72
2023-05-01T20:21:26.982Z,2.50
2023-05-01T20:26:31.415Z,1.98
2023-05-01T20:31:37.414Z,2.13
2023-05-01T20:36:41.094Z,1.92
2023-05-01T20:41:44.978Z,1.90
2023-05-01T20:46:51.694Z,1.92
2023-05-01T20:51:56.984Z,1.73
2023-05-01T20:57:02.993Z,1.60
2023-05-01T21:02:08.187Z,1.80
2023-05-01T21:07:11.880Z,1.88
2023-05-01T21:12:15.768Z,1.73
2023-05-01T21:17:20.726Z,1.52
2023-05-01T21:22:24.966Z,1.90
2023-05-01T21:27:29.126Z,1.58
2023-05-01T21:32:34.952Z,1.60
2023-05-01T21:37:39.515Z,1.75
2023-05-01T21:42:43.472Z,1.60
2023-05-01T21:47:49.857Z,1.35
2023-05-01T21:52:53.730Z,1.50
2023-05-01T21:57:57.249Z,1.63
2023-05-01T22:03:10.593Z,1.60
2023-05-01T22:08:14.234Z,1.27
2023-05-01T22:13:17.778Z,1.48
2023-05-01T22:18:23.117Z,1.85
2023-05-01T22:23:26.748Z,1.50
2023-05-01T22:28:30.356Z,1.48
2023-05-01T22:33:35.315Z,1.65
2023-05-01T22:38:38.890Z,1.40
2023-05-01T22:43:42.368Z,1.60
2023-05-01T22:48:47.371Z,2.20
2023-05-01T22:53:50.958Z,1.73
2023-05-01T22:58:55.307Z,1.90
2023-05-01T23:04:00.272Z,1.90
2023-05-01T23:09:04.094Z,2.00
2023-05-01T23:14:07.590Z,1.65
2023-05-01T23:19:20.753Z,1.70
2023-05-01T23:24:25.175Z,1.85
2023-05-01T23:29:28.845Z,1.73
2023-05-01T23:34:33.701Z,1.88
2023-05-01T23:39:37.235Z,1.80
2023-05-01T23:44:40.884Z,1.55
2023-05-01T23:49:46.198Z,2.47
2023-05-01T23:54:49.733Z,1.67
2023-05-01T23:59:53.788Z,1.40
